sensor_id;sensor_type;location;lat;lon;timestamp;pressure;altitude;pressure_sealevel;temperature;humidity
25498;BME280;13406;53.380;7.226;2023-05-08T00:00:47;102172.06;;;11.31;100.00
25498;BME280;13406;53.380;7.226;2023-05-08T00:03:18;102215.50;;;11.59;100.00
25498;BME280;13406;53.380;7.226;2023-05-08T00:05:48;102115.28;;;10.78;100.00
25498;BME280;13406;53.380;7.226;2023-05-08T00:08:18;101963.72;;;10.09;100.00
25498;BME280;13406;53.380;7.226;2023-05-08T00:10:44;102207.63;;;11.58;100.00
25498;BME280;13406;53.380;7.226;2023-05-08T00:13:17;101981.78;;;9.66;100.00
25498;BME280;13406;53.380;7.226;2023-05-08T00:15:58;102083.09;;;10.62;100.00
25498;BME280;13406;53.380;7.226;2023-05-08T00:18:26;102147.63;;;11.09;100.00
25498;BME280;13406;53.380;7.226;2023-05-08T00:20:52;102128.19;;;10.83;100.00
25498;BME280;13406;53.380;7.226;2023-05-08T00:23:18;102184.38;;;11.17;100.00
25498;BME280;13406;53.380;7.226;2023-05-08T00:25:46;102164.41;;;10.95;100.00
25498;BME280;13406;53.380;7.226;2023-05-08T00:28:11;102106.03;;;10.73;100.00
25498;BME280;13406;53.380;7.226;2023-05-08T00:30:42;102123.84;;;10.82;100.00
25498;BME280;13406;53.380;7.226;2023-05-08T00:33:13;102194.78;;;11.20;100.00
25498;BME280;13406;53.380;7.226;2023-05-08T00:35:39;101983.00;;;9.88;100.00
25498;BME280;13406;53.380;7.226;2023-05-08T00:38:08;102141.94;;;10.80;100.00
25498;BME280;13406;53.380;7.226;2023-05-08T00:40:38;102152.34;;;10.75;100.00
25498;BME280;13406;53.380;7.226;2023-05-08T00:43:07;102059.56;;;10.15;100.00
25498;BME280;13406;53.380;7.226;2023-05-08T00:45:38;102101.50;;;10.24;100.00
25498;BME280;13406;53.380;7.226;2023-05-08T00:48:04;102141.78;;;10.73;100.00
25498;BME280;13406;53.380;7.226;2023-05-08T00:50:30;102146.31;;;10.73;100.00
25498;BME280;13406;53.380;7.226;2023-05-08T00:53:04;102057.22;;;10.12;100.00
25498;BME280;13406;53.380;7.226;2023-05-08T00:55:31;101899.72;;;9.32;100.00
25498;BME280;13406;53.380;7.226;2023-05-08T00:57:57;102181.19;;;10.73;100.00
25498;BME280;13406;53.380;7.226;2023-05-08T01:00:22;102170.63;;;10.55;100.00
25498;BME280;13406;53.380;7.226;2023-05-08T01:02:49;102191.59;;;10.92;100.00
25498;BME280;13406;53.380;7.226;2023-05-08T01:05:14;102163.75;;;10.85;100.00
25498;BME280;13406;53.380;7.226;2023-05-08T01:07:40;102135.56;;;10.73;100.00
25498;BME280;13406;53.380;7.226;2023-05-08T01:10:09;102047.69;;;10.01;100.00
25498;BME280;13406;53.380;7.226;2023-05-08T01:15:37;102063.75;;;9.93;100.00
25498;BME280;13406;53.380;7.226;2023-05-08T01:26:46;102223.13;;;10.90;100.00
25498;BME280;13406;53.380;7.226;2023-05-08T01:29:25;102224.97;;;10.90;100.00
25498;BME280;13406;53.380;7.226;2023-05-08T01:32:04;102222.13;;;10.83;100.00
25498;BME280;13406;53.380;7.226;2023-05-08T01:34:32;102221.81;;;10.86;100.00
25498;BME280;13406;53.380;7.226;2023-05-08T01:37:12;102072.09;;;9.90;100.00
25498;BME280;13406;53.380;7.226;2023-05-08T01:39:44;102222.66;;;10.95;100.00
25498;BME280;13406;53.380;7.226;2023-05-08T01:44:52;102211.06;;;10.86;100.00
25498;BME280;13406;53.380;7.226;2023-05-08T01:47:23;102184.34;;;10.52;100.00
25498;BME280;13406;53.380;7.226;2023-05-08T01:49:57;102197.97;;;10.75;100.00
25498;BME280;13406;53.380;7.226;2023-05-08T01:52:36;102208.88;;;10.98;100.00
25498;BME280;13406;53.380;7.226;2023-05-08T01:55:30;102203.34;;;10.83;100.00
25498;BME280;13406;53.380;7.226;2023-05-08T01:57:57;102111.69;;;10.04;100.00
25498;BME280;13406;53.380;7.226;2023-05-08T02:00:25;102195.59;;;10.55;100.00
25498;BME280;13406;53.380;7.226;2023-05-08T02:02:53;102126.41;;;10.08;100.00
25498;BME280;13406;53.380;7.226;2023-05-08T02:05:23;102118.03;;;10.11;100.00
25498;BME280;13406;53.380;7.226;2023-05-08T02:07:50;102152.84;;;10.46;100.00
25498;BME280;13406;53.380;7.226;2023-05-08T02:10:17;102080.47;;;9.95;100.00
25498;BME280;13406;53.380;7.226;2023-05-08T02:12:45;102119.88;;;10.03;100.00
25498;BME280;13406;53.380;7.226;2023-05-08T02:15:12;102179.06;;;10.17;100.00
25498;BME280;13406;53.380;7.226;2023-05-08T02:17:40;102173.09;;;10.32;100.00
25498;BME280;13406;53.380;7.226;2023-05-08T02:20:08;102082.63;;;9.83;100.00
25498;BME280;13406;53.380;7.226;2023-05-08T02:22:41;102222.28;;;10.57;100.00
25498;BME280;13406;53.380;7.226;2023-05-08T02:25:08;102199.66;;;10.68;100.00
25498;BME280;13406;53.380;7.226;2023-05-08T02:27:38;102162.69;;;10.29;100.00
25498;BME280;13406;53.380;7.226;2023-05-08T02:30:06;102198.81;;;10.59;100.00
25498;BME280;13406;53.380;7.226;2023-05-08T02:32:33;102200.97;;;10.55;100.00
25498;BME280;13406;53.380;7.226;2023-05-08T02:34:59;102106.94;;;9.90;100.00
25498;BME280;13406;53.380;7.226;2023-05-08T02:37:26;102139.09;;;9.90;100.00
25498;BME280;13406;53.380;7.226;2023-05-08T02:39:55;102117.13;;;9.78;100.00
25498;BME280;13406;53.380;7.226;2023-05-08T02:42:22;102104.91;;;9.76;100.00
25498;BME280;13406;53.380;7.226;2023-05-08T02:44:48;102198.66;;;10.18;100.00
25498;BME280;13406;53.380;7.226;2023-05-08T02:47:19;102210.50;;;10.42;100.00
25498;BME280;13406;53.380;7.226;2023-05-08T02:49:55;102087.91;;;9.59;100.00
25498;BME280;13406;53.380;7.226;2023-05-08T02:52:59;102166.19;;;9.79;100.00
25498;BME280;13406;53.380;7.226;2023-05-08T02:55:37;102219.50;;;10.32;100.00
25498;BME280;13406;53.380;7.226;2023-05-08T02:58:15;102132.00;;;9.72;100.00
25498;BME280;13406;53.380;7.226;2023-05-08T03:01:10;102215.50;;;10.28;100.00
25498;BME280;13406;53.380;7.226;2023-05-08T03:03:43;102126.69;;;9.89;100.00
25498;BME280;13406;53.380;7.226;2023-05-08T03:06:17;102221.56;;;10.47;100.00
25498;BME280;13406;53.380;7.226;2023-05-08T03:08:45;102138.28;;;9.98;100.00
25498;BME280;13406;53.380;7.226;2023-05-08T03:11:14;102114.44;;;9.78;100.00
25498;BME280;13406;53.380;7.226;2023-05-08T03:13:41;102077.84;;;9.53;100.00
25498;BME280;13406;53.380;7.226;2023-05-08T03:16:11;102230.78;;;10.44;100.00
25498;BME280;13406;53.380;7.226;2023-05-08T03:18:52;102136.84;;;9.69;100.00
25498;BME280;13406;53.380;7.226;2023-05-08T03:21:20;102135.03;;;9.78;100.00
25498;BME280;13406;53.380;7.226;2023-05-08T03:23:48;102178.88;;;9.68;100.00
25498;BME280;13406;53.380;7.226;2023-05-08T03:26:18;102100.13;;;9.53;100.00
25498;BME280;13406;53.380;7.226;2023-05-08T03:28:48;102147.53;;;9.61;100.00
25498;BME280;13406;53.380;7.226;2023-05-08T03:31:18;102117.91;;;9.62;100.00
25498;BME280;13406;53.380;7.226;2023-05-08T03:33:49;102148.75;;;9.74;100.00
25498;BME280;13406;53.380;7.226;2023-05-08T03:36:15;102206.03;;;10.16;100.00
25498;BME280;13406;53.380;7.226;2023-05-08T03:38:41;102119.22;;;9.58;100.00
25498;BME280;13406;53.380;7.226;2023-05-08T03:41:07;102123.72;;;9.49;100.00
25498;BME280;13406;53.380;7.226;2023-05-08T03:43:32;102143.47;;;9.57;100.00
25498;BME280;13406;53.380;7.226;2023-05-08T03:46:00;102134.13;;;9.26;100.00
25498;BME280;13406;53.380;7.226;2023-05-08T03:48:27;102149.75;;;9.39;100.00
25498;BME280;13406;53.380;7.226;2023-05-08T03:50:55;102152.34;;;9.49;100.00
25498;BME280;13406;53.380;7.226;2023-05-08T03:53:22;102148.28;;;9.45;100.00
25498;BME280;13406;53.380;7.226;2023-05-08T03:55:47;102140.38;;;9.35;100.00
25498;BME280;13406;53.380;7.226;2023-05-08T03:58:27;102200.91;;;9.88;100.00
25498;BME280;13406;53.380;7.226;2023-05-08T04:01:17;102220.25;;;10.08;100.00
25498;BME280;13406;53.380;7.226;2023-05-08T04:04:01;102215.34;;;10.04;100.00
25498;BME280;13406;53.380;7.226;2023-05-08T04:11:46;102088.63;;;9.26;100.00
25498;BME280;13406;53.380;7.226;2023-05-08T04:14:18;102126.47;;;9.32;100.00
25498;BME280;13406;53.380;7.226;2023-05-08T04:16:49;102180.56;;;9.78;100.00
25498;BME280;13406;53.380;7.226;2023-05-08T04:19:26;102104.31;;;9.21;100.00
25498;BME280;13406;53.380;7.226;2023-05-08T04:21:57;102132.63;;;9.58;100.00
25498;BME280;13406;53.380;7.226;2023-05-08T04:24:24;102114.78;;;9.41;100.00
25498;BME280;13406;53.380;7.226;2023-05-08T04:26:52;102124.19;;;9.45;100.00
25498;BME280;13406;53.380;7.226;2023-05-08T04:29:18;102134.47;;;9.66;100.00
25498;BME280;13406;53.380;7.226;2023-05-08T04:31:44;102150.59;;;9.40;100.00
25498;BME280;13406;53.380;7.226;2023-05-08T04:34:10;102145.50;;;9.55;100.00
25498;BME280;13406;53.380;7.226;2023-05-08T04:36:36;102147.06;;;9.39;100.00
25498;BME280;13406;53.380;7.226;2023-05-08T04:39:02;102134.50;;;9.32;100.00
25498;BME280;13406;53.380;7.226;2023-05-08T04:41:27;102177.63;;;9.28;100.00
25498;BME280;13406;53.380;7.226;2023-05-08T04:43:53;102155.91;;;9.32;100.00
25498;BME280;13406;53.380;7.226;2023-05-08T04:46:18;102137.31;;;9.30;100.00
25498;BME280;13406;53.380;7.226;2023-05-08T04:48:44;102150.97;;;9.45;100.00
25498;BME280;13406;53.380;7.226;2023-05-08T04:51:09;102238.63;;;10.29;100.00
25498;BME280;13406;53.380;7.226;2023-05-08T04:53:35;102120.03;;;9.50;100.00
25498;BME280;13406;53.380;7.226;2023-05-08T04:56:00;102233.16;;;10.05;100.00
25498;BME280;13406;53.380;7.226;2023-05-08T04:58:25;102216.38;;;10.03;100.00
25498;BME280;13406;53.380;7.226;2023-05-08T05:00:53;102185.69;;;9.97;100.00
25498;BME280;13406;53.380;7.226;2023-05-08T05:03:18;102152.22;;;9.59;100.00
25498;BME280;13406;53.380;7.226;2023-05-08T05:05:43;102083.03;;;9.20;100.00
25498;BME280;13406;53.380;7.226;2023-05-08T05:08:09;102151.75;;;9.63;100.00
25498;BME280;13406;53.380;7.226;2023-05-08T05:10:36;102151.44;;;9.74;100.00
25498;BME280;13406;53.380;7.226;2023-05-08T05:13:01;102221.88;;;10.27;100.00
25498;BME280;13406;53.380;7.226;2023-05-08T05:15:27;102103.91;;;9.42;100.00
25498;BME280;13406;53.380;7.226;2023-05-08T05:17:52;102194.25;;;10.01;100.00
25498;BME280;13406;53.380;7.226;2023-05-08T05:20:18;102219.38;;;10.34;100.00
25498;BME280;13406;53.380;7.226;2023-05-08T05:22:43;102190.09;;;10.14;100.00
25498;BME280;13406;53.380;7.226;2023-05-08T05:25:09;102040.78;;;9.32;100.00
25498;BME280;13406;53.380;7.226;2023-05-08T05:27:34;102103.88;;;9.77;100.00
25498;BME280;13406;53.380;7.226;2023-05-08T05:30:03;102137.22;;;9.82;100.00
25498;BME280;13406;53.380;7.226;2023-05-08T05:32:29;102166.00;;;10.23;100.00
25498;BME280;13406;53.380;7.226;2023-05-08T05:34:54;102124.34;;;9.86;100.00
25498;BME280;13406;53.380;7.226;2023-05-08T05:37:21;102130.72;;;9.85;100.00
25498;BME280;13406;53.380;7.226;2023-05-08T05:39:46;102162.94;;;10.09;100.00
25498;BME280;13406;53.380;7.226;2023-05-08T05:42:11;102233.47;;;10.52;100.00
25498;BME280;13406;53.380;7.226;2023-05-08T05:44:37;102160.63;;;10.14;100.00
25498;BME280;13406;53.380;7.226;2023-05-08T05:47:02;102137.00;;;10.10;100.00
25498;BME280;13406;53.380;7.226;2023-05-08T05:49:34;102090.22;;;9.96;100.00
25498;BME280;13406;53.380;7.226;2023-05-08T05:51:59;102203.94;;;10.44;100.00
25498;BME280;13406;53.380;7.226;2023-05-08T05:54:24;102129.75;;;10.02;100.00
25498;BME280;13406;53.380;7.226;2023-05-08T05:56:50;102221.63;;;10.71;100.00
25498;BME280;13406;53.380;7.226;2023-05-08T05:59:15;102203.16;;;10.68;100.00
25498;BME280;13406;53.380;7.226;2023-05-08T06:01:41;102182.84;;;10.49;100.00
25498;BME280;13406;53.380;7.226;2023-05-08T06:04:06;102129.09;;;10.08;100.00
25498;BME280;13406;53.380;7.226;2023-05-08T06:06:32;102230.84;;;10.93;100.00
25498;BME280;13406;53.380;7.226;2023-05-08T06:08:57;102230.88;;;11.09;100.00
25498;BME280;13406;53.380;7.226;2023-05-08T06:11:23;102163.06;;;10.67;100.00
25498;BME280;13406;53.380;7.226;2023-05-08T06:13:48;102162.06;;;10.76;100.00
25498;BME280;13406;53.380;7.226;2023-05-08T06:16:13;102237.25;;;11.08;100.00
25498;BME280;13406;53.380;7.226;2023-05-08T06:18:39;102145.47;;;10.64;100.00
25498;BME280;13406;53.380;7.226;2023-05-08T06:21:05;102227.16;;;11.19;100.00
25498;BME280;13406;53.380;7.226;2023-05-08T06:23:31;102210.84;;;11.37;100.00
25498;BME280;13406;53.380;7.226;2023-05-08T06:25:56;102209.88;;;11.29;100.00
25498;BME280;13406;53.380;7.226;2023-05-08T06:28:21;102213.88;;;11.42;100.00
25498;BME280;13406;53.380;7.226;2023-05-08T06:30:48;102171.59;;;11.19;100.00
25498;BME280;13406;53.380;7.226;2023-05-08T06:33:14;102180.81;;;11.25;100.00
25498;BME280;13406;53.380;7.226;2023-05-08T06:35:39;102165.53;;;11.34;100.00
25498;BME280;13406;53.380;7.226;2023-05-08T06:38:04;102125.66;;;10.98;100.00
25498;BME280;13406;53.380;7.226;2023-05-08T06:40:30;102174.59;;;11.41;100.00
25498;BME280;13406;53.380;7.226;2023-05-08T06:42:55;102196.53;;;11.69;100.00
25498;BME280;13406;53.380;7.226;2023-05-08T06:45:21;102194.63;;;11.86;100.00
25498;BME280;13406;53.380;7.226;2023-05-08T06:47:46;102135.06;;;11.66;100.00
25498;BME280;13406;53.380;7.226;2023-05-08T06:50:12;102178.34;;;11.87;100.00
25498;BME280;13406;53.380;7.226;2023-05-08T06:52:37;102207.78;;;12.12;100.00
25498;BME280;13406;53.380;7.226;2023-05-08T06:55:03;102109.19;;;11.17;100.00
25498;BME280;13406;53.380;7.226;2023-05-08T06:57:28;102176.38;;;11.65;100.00
25498;BME280;13406;53.380;7.226;2023-05-08T06:59:55;102176.59;;;11.47;100.00
25498;BME280;13406;53.380;7.226;2023-05-08T07:02:20;102154.84;;;11.73;100.00
25498;BME280;13406;53.380;7.226;2023-05-08T07:04:46;102131.25;;;11.91;100.00
25498;BME280;13406;53.380;7.226;2023-05-08T07:07:11;102189.72;;;12.29;100.00
25498;BME280;13406;53.380;7.226;2023-05-08T07:09:38;102116.63;;;11.94;100.00
25498;BME280;13406;53.380;7.226;2023-05-08T07:12:04;102208.38;;;12.61;100.00
25498;BME280;13406;53.380;7.226;2023-05-08T07:14:29;102117.38;;;12.11;100.00
25498;BME280;13406;53.380;7.226;2023-05-08T07:16:55;102133.09;;;12.22;100.00
25498;BME280;13406;53.380;7.226;2023-05-08T07:19:20;102209.25;;;12.77;100.00
25498;BME280;13406;53.380;7.226;2023-05-08T07:21:46;102206.38;;;12.78;100.00
25498;BME280;13406;53.380;7.226;2023-05-08T07:24:11;102181.56;;;12.14;100.00
25498;BME280;13406;53.380;7.226;2023-05-08T07:26:37;102215.69;;;12.44;100.00
25498;BME280;13406;53.380;7.226;2023-05-08T07:29:02;102178.59;;;12.32;100.00
25498;BME280;13406;53.380;7.226;2023-05-08T07:31:28;102086.41;;;11.44;100.00
25498;BME280;13406;53.380;7.226;2023-05-08T07:33:53;102119.28;;;12.02;100.00
25498;BME280;13406;53.380;7.226;2023-05-08T07:36:19;102124.06;;;12.15;100.00
25498;BME280;13406;53.380;7.226;2023-05-08T07:38:44;102095.81;;;12.19;100.00
25498;BME280;13406;53.380;7.226;2023-05-08T07:41:10;102097.78;;;11.94;100.00
25498;BME280;13406;53.380;7.226;2023-05-08T07:43:35;102196.56;;;12.85;100.00
25498;BME280;13406;53.380;7.226;2023-05-08T07:46:01;102136.88;;;12.36;100.00
25498;BME280;13406;53.380;7.226;2023-05-08T07:48:27;102218.16;;;12.77;100.00
25498;BME280;13406;53.380;7.226;2023-05-08T07:50:52;102130.16;;;12.32;100.00
25498;BME280;13406;53.380;7.226;2023-05-08T07:53:17;102133.53;;;12.57;100.00
25498;BME280;13406;53.380;7.226;2023-05-08T07:55:43;102178.50;;;12.71;100.00
25498;BME280;13406;53.380;7.226;2023-05-08T07:58:08;102052.09;;;12.17;100.00
25498;BME280;13406;53.380;7.226;2023-05-08T08:00:34;102123.44;;;12.59;100.00
25498;BME280;13406;53.380;7.226;2023-05-08T08:02:59;102098.53;;;12.57;100.00
25498;BME280;13406;53.380;7.226;2023-05-08T08:05:25;102189.72;;;12.98;100.00
25498;BME280;13406;53.380;7.226;2023-05-08T08:07:50;102164.00;;;13.10;100.00
25498;BME280;13406;53.380;7.226;2023-05-08T08:10:16;102188.00;;;13.43;100.00
25498;BME280;13406;53.380;7.226;2023-05-08T08:12:41;102132.72;;;13.09;100.00
25498;BME280;13406;53.380;7.226;2023-05-08T08:15:07;102137.28;;;13.23;100.00
25498;BME280;13406;53.380;7.226;2023-05-08T08:17:33;102134.94;;;13.05;100.00
25498;BME280;13406;53.380;7.226;2023-05-08T08:19:58;102159.09;;;13.51;100.00
25498;BME280;13406;53.380;7.226;2023-05-08T08:22:24;102144.50;;;13.46;100.00
25498;BME280;13406;53.380;7.226;2023-05-08T08:24:51;102171.81;;;13.72;100.00
25498;BME280;13406;53.380;7.226;2023-05-08T08:27:16;102072.16;;;13.05;100.00
25498;BME280;13406;53.380;7.226;2023-05-08T08:29:42;102170.81;;;13.21;100.00
25498;BME280;13406;53.380;7.226;2023-05-08T08:32:07;102163.06;;;13.41;100.00
25498;BME280;13406;53.380;7.226;2023-05-08T08:34:33;102137.91;;;13.48;100.00
25498;BME280;13406;53.380;7.226;2023-05-08T08:36:58;102154.97;;;13.70;100.00
25498;BME280;13406;53.380;7.226;2023-05-08T08:39:24;102148.75;;;13.70;100.00
25498;BME280;13406;53.380;7.226;2023-05-08T08:41:49;102082.03;;;13.27;100.00
25498;BME280;13406;53.380;7.226;2023-05-08T08:44:15;102091.59;;;13.45;100.00
25498;BME280;13406;53.380;7.226;2023-05-08T08:46:43;102118.06;;;13.56;100.00
25498;BME280;13406;53.380;7.226;2023-05-08T08:49:40;102049.78;;;13.19;100.00
25498;BME280;13406;53.380;7.226;2023-05-08T08:52:06;102054.72;;;13.30;100.00
25498;BME280;13406;53.380;7.226;2023-05-08T08:54:36;102091.22;;;13.63;100.00
25498;BME280;13406;53.380;7.226;2023-05-08T08:57:05;102171.19;;;14.07;100.00
25498;BME280;13406;53.380;7.226;2023-05-08T08:59:33;102161.75;;;14.17;100.00
25498;BME280;13406;53.380;7.226;2023-05-08T09:02:07;102074.06;;;13.70;100.00
25498;BME280;13406;53.380;7.226;2023-05-08T09:04:35;102159.50;;;14.36;100.00
25498;BME280;13406;53.380;7.226;2023-05-08T09:07:01;102091.88;;;14.01;100.00
25498;BME280;13406;53.380;7.226;2023-05-08T09:09:30;102158.50;;;14.43;100.00
25498;BME280;13406;53.380;7.226;2023-05-08T09:11:58;102104.59;;;14.29;100.00
25498;BME280;13406;53.380;7.226;2023-05-08T09:14:24;102142.56;;;14.48;100.00
25498;BME280;13406;53.380;7.226;2023-05-08T09:16:52;102071.44;;;14.13;100.00
25498;BME280;13406;53.380;7.226;2023-05-08T09:19:18;102161.59;;;14.55;100.00
25498;BME280;13406;53.380;7.226;2023-05-08T09:21:44;102063.97;;;13.94;100.00
25498;BME280;13406;53.380;7.226;2023-05-08T09:24:09;102164.91;;;14.57;100.00
25498;BME280;13406;53.380;7.226;2023-05-08T09:26:37;102092.19;;;14.13;100.00
25498;BME280;13406;53.380;7.226;2023-05-08T09:29:15;102160.78;;;14.83;100.00
25498;BME280;13406;53.380;7.226;2023-05-08T09:31:51;102166.19;;;14.83;100.00
25498;BME280;13406;53.380;7.226;2023-05-08T09:34:28;102176.50;;;15.01;100.00
25498;BME280;13406;53.380;7.226;2023-05-08T09:39:31;102121.56;;;14.44;100.00
25498;BME280;13406;53.380;7.226;2023-05-08T09:41:58;102143.84;;;14.67;100.00
25498;BME280;13406;53.380;7.226;2023-05-08T09:44:23;102083.34;;;14.62;100.00
25498;BME280;13406;53.380;7.226;2023-05-08T09:46:49;101983.00;;;13.87;100.00
25498;BME280;13406;53.380;7.226;2023-05-08T09:49:17;102078.94;;;14.61;100.00
25498;BME280;13406;53.380;7.226;2023-05-08T09:51:53;102145.06;;;15.21;100.00
25498;BME280;13406;53.380;7.226;2023-05-08T09:54:19;102130.88;;;15.12;100.00
25498;BME280;13406;53.380;7.226;2023-05-08T09:56:44;102012.22;;;14.27;100.00
25498;BME280;13406;53.380;7.226;2023-05-08T09:59:24;102009.34;;;14.35;100.00
25498;BME280;13406;53.380;7.226;2023-05-08T10:01:51;102132.47;;;15.00;100.00
25498;BME280;13406;53.380;7.226;2023-05-08T10:04:16;102047.00;;;14.64;100.00
25498;BME280;13406;53.380;7.226;2023-05-08T10:06:42;102054.19;;;14.79;100.00
25498;BME280;13406;53.380;7.226;2023-05-08T10:09:12;101967.03;;;14.35;100.00
25498;BME280;13406;53.380;7.226;2023-05-08T10:11:48;102114.88;;;15.46;100.00
25498;BME280;13406;53.380;7.226;2023-05-08T10:14:17;102109.03;;;15.42;100.00
25498;BME280;13406;53.380;7.226;2023-05-08T10:16:44;102087.13;;;15.30;100.00
25498;BME280;13406;53.380;7.226;2023-05-08T10:19:20;102095.13;;;15.52;100.00
25498;BME280;13406;53.380;7.226;2023-05-08T10:21:51;102084.00;;;15.68;100.00
25498;BME280;13406;53.380;7.226;2023-05-08T10:24:25;102096.50;;;15.76;100.00
25498;BME280;13406;53.380;7.226;2023-05-08T10:27:17;102092.69;;;15.64;100.00
25498;BME280;13406;53.380;7.226;2023-05-08T10:29:55;102002.44;;;15.17;100.00
25498;BME280;13406;53.380;7.226;2023-05-08T10:32:22;102023.59;;;15.48;100.00
25498;BME280;13406;53.380;7.226;2023-05-08T10:35:02;102065.72;;;15.77;100.00
25498;BME280;13406;53.380;7.226;2023-05-08T10:37:29;102088.28;;;16.11;100.00
25498;BME280;13406;53.380;7.226;2023-05-08T10:39:56;102098.50;;;16.09;100.00
25498;BME280;13406;53.380;7.226;2023-05-08T10:42:22;102017.53;;;15.39;100.00
25498;BME280;13406;53.380;7.226;2023-05-08T10:44:48;102128.47;;;16.14;100.00
25498;BME280;13406;53.380;7.226;2023-05-08T10:55:12;102074.91;;;15.89;100.00
25498;BME280;13406;53.380;7.226;2023-05-08T10:57:41;102036.38;;;15.74;100.00
25498;BME280;13406;53.380;7.226;2023-05-08T11:00:07;102044.84;;;15.64;100.00
25498;BME280;13406;53.380;7.226;2023-05-08T11:02:32;102013.88;;;15.73;100.00
25498;BME280;13406;53.380;7.226;2023-05-08T11:05:14;102080.81;;;16.33;100.00
25498;BME280;13406;53.380;7.226;2023-05-08T11:07:57;102019.97;;;15.95;100.00
25498;BME280;13406;53.380;7.226;2023-05-08T11:10:29;102070.00;;;16.46;100.00
25498;BME280;13406;53.380;7.226;2023-05-08T11:13:01;102113.97;;;16.68;100.00
25498;BME280;13406;53.380;7.226;2023-05-08T11:15:39;102023.94;;;16.19;100.00
25498;BME280;13406;53.380;7.226;2023-05-08T11:18:06;102091.88;;;16.71;100.00
25498;BME280;13406;53.380;7.226;2023-05-08T11:20:38;102091.25;;;16.89;100.00
25498;BME280;13406;53.380;7.226;2023-05-08T11:23:20;102098.97;;;16.92;100.00
25498;BME280;13406;53.380;7.226;2023-05-08T11:25:46;102115.84;;;17.01;100.00
25498;BME280;13406;53.380;7.226;2023-05-08T11:28:15;102004.16;;;16.45;100.00
25498;BME280;13406;53.380;7.226;2023-05-08T11:30:43;101981.47;;;16.53;100.00
25498;BME280;13406;53.380;7.226;2023-05-08T11:38:27;102099.78;;;17.12;100.00
25498;BME280;13406;53.380;7.226;2023-05-08T11:48:33;102067.63;;;17.36;100.00
25498;BME280;13406;53.380;7.226;2023-05-08T11:50:59;102004.72;;;17.01;100.00
25498;BME280;13406;53.380;7.226;2023-05-08T11:53:26;102008.03;;;17.16;100.00
25498;BME280;13406;53.380;7.226;2023-05-08T11:55:52;102049.38;;;17.50;100.00
25498;BME280;13406;53.380;7.226;2023-05-08T11:58:18;102087.28;;;17.76;100.00
25498;BME280;13406;53.380;7.226;2023-05-08T12:00:45;102096.41;;;17.89;100.00
25498;BME280;13406;53.380;7.226;2023-05-08T12:03:12;102001.84;;;17.40;100.00
25498;BME280;13406;53.380;7.226;2023-05-08T12:05:37;102020.41;;;17.44;100.00
25498;BME280;13406;53.380;7.226;2023-05-08T12:08:04;102072.78;;;17.96;100.00
25498;BME280;13406;53.380;7.226;2023-05-08T12:10:30;102046.25;;;17.53;100.00
25498;BME280;13406;53.380;7.226;2023-05-08T12:12:56;102091.94;;;18.01;100.00
25498;BME280;13406;53.380;7.226;2023-05-08T12:15:21;102099.81;;;18.16;100.00
25498;BME280;13406;53.380;7.226;2023-05-08T12:17:47;102100.66;;;18.41;100.00
25498;BME280;13406;53.380;7.226;2023-05-08T12:20:17;102097.97;;;18.41;100.00
25498;BME280;13406;53.380;7.226;2023-05-08T12:22:50;102021.50;;;17.81;100.00
25498;BME280;13406;53.380;7.226;2023-05-08T12:25:16;102095.06;;;18.36;100.00
25498;BME280;13406;53.380;7.226;2023-05-08T12:27:42;102040.50;;;17.74;100.00
25498;BME280;13406;53.380;7.226;2023-05-08T12:30:10;102053.44;;;17.86;100.00
25498;BME280;13406;53.380;7.226;2023-05-08T12:32:37;102094.31;;;18.22;100.00
25498;BME280;13406;53.380;7.226;2023-05-08T12:35:08;102095.28;;;18.35;100.00
25498;BME280;13406;53.380;7.226;2023-05-08T12:37:34;101974.75;;;17.79;100.00
25498;BME280;13406;53.380;7.226;2023-05-08T12:39:59;102088.72;;;18.49;100.00
25498;BME280;13406;53.380;7.226;2023-05-08T12:42:41;102061.13;;;18.45;100.00
25498;BME280;13406;53.380;7.226;2023-05-08T12:45:07;102026.41;;;18.29;100.00
25498;BME280;13406;53.380;7.226;2023-05-08T12:47:33;102006.59;;;18.22;100.00
25498;BME280;13406;53.380;7.226;2023-05-08T12:49:58;102076.00;;;18.93;100.00
25498;BME280;13406;53.380;7.226;2023-05-08T12:52:23;102073.56;;;18.85;100.00
25498;BME280;13406;53.380;7.226;2023-05-08T12:54:49;102046.94;;;18.68;100.00
25498;BME280;13406;53.380;7.226;2023-05-08T12:57:18;102009.31;;;18.47;100.00
25498;BME280;13406;53.380;7.226;2023-05-08T12:59:45;102082.38;;;19.05;100.00
25498;BME280;13406;53.380;7.226;2023-05-08T13:02:16;102009.00;;;18.80;100.00
25498;BME280;13406;53.380;7.226;2023-05-08T13:04:42;101981.63;;;18.57;100.00
25498;BME280;13406;53.380;7.226;2023-05-08T13:07:08;102077.38;;;19.20;100.00
25498;BME280;13406;53.380;7.226;2023-05-08T13:09:33;102028.22;;;19.04;100.00
25498;BME280;13406;53.380;7.226;2023-05-08T13:11:59;102081.31;;;19.43;100.00
25498;BME280;13406;53.380;7.226;2023-05-08T13:14:24;101945.56;;;18.49;100.00
25498;BME280;13406;53.380;7.226;2023-05-08T13:16:50;102006.47;;;19.04;100.00
25498;BME280;13406;53.380;7.226;2023-05-08T13:19:16;102060.81;;;19.59;100.00
25498;BME280;13406;53.380;7.226;2023-05-08T13:21:42;102061.66;;;19.59;100.00
25498;BME280;13406;53.380;7.226;2023-05-08T13:24:14;101994.22;;;19.13;100.00
25498;BME280;13406;53.380;7.226;2023-05-08T13:26:40;102007.34;;;19.34;100.00
25498;BME280;13406;53.380;7.226;2023-05-08T13:29:06;102042.56;;;19.48;100.00
25498;BME280;13406;53.380;7.226;2023-05-08T13:31:32;101962.00;;;19.28;100.00